Terminal Aerodrome Forecast
Issued by NWS

Home | Current Version | Previous Version | Graphics & Text | Print | Product List | Glossary On
Versions: 1 2 3 4 5 6 7 8 9 10 11 12 13 14 15 16 17 18 19 20 21 22 23 24 25 26 27 28 29 30 31 32 33 34
000
FTUS43 KGRB 260733 AAA
TAFRHI
TAF AMD
KRHI 260733Z 2608/2706 06011KT P6SM OVC006
      TEMPO 2609/2613 5SM -DZ OVC004
     FM261500 07007KT P6SM BKN006 OVC010
     FM261700 06008KT P6SM BKN010 OVC018
     FM262200 07008KT P6SM SCT020
     FM270100 07004KT P6SM SKC=

USA.gov is the U.S. government's official web portal to all federal, state and local government web resources and services.